Time;durP1;ratioP1;P1;durP2;ratioP2;P2;SDS_P1;SDS_P2;PMS_P1;PMS_P2;Temp;Humidity;BMP_temperature;BMP_pressure;BME280_temperature;BME280_humidity;BME280_pressure;Samples;Min_cycle;Max_cycle;Signal;HPM_P1;HPM_P2
2024/02/20 00:00:46;;;;;;;6.03;2.50;;;10.00;99.90;;;;;;5073000;28;20435;-48
2024/02/20 00:03:15;;;;;;;6.50;2.47;;;10.00;99.90;;;;;;5077267;28;21006;-46
2024/02/20 00:05:46;;;;;;;4.67;2.33;;;10.00;99.90;;;;;;5071893;28;20440;-47
2024/02/20 00:08:16;;;;;;;3.30;2.30;;;10.10;99.90;;;;;;5072462;28;20467;-46
2024/02/20 00:10:46;;;;;;;4.40;2.43;;;10.00;99.90;;;;;;5059164;28;20520;-50
2024/02/20 00:13:17;;;;;;;3.67;1.90;;;10.00;99.90;;;;;;5080308;28;20464;-46
2024/02/20 00:15:47;;;;;;;7.90;2.43;;;10.00;99.90;;;;;;5077820;28;20439;-47
2024/02/20 00:18:16;;;;;;;3.90;2.13;;;10.00;99.90;;;;;;5081352;28;20493;-46
2024/02/20 00:20:44;;;;;;;4.13;2.37;;;10.00;99.90;;;;;;5080222;28;20924;-47
2024/02/20 00:23:14;;;;;;;3.57;2.13;;;10.00;99.90;;;;;;5081767;28;21044;-46
2024/02/20 00:25:43;;;;;;;2.90;1.97;;;10.00;99.90;;;;;;5078992;28;20489;-47
2024/02/20 00:28:13;;;;;;;6.03;2.43;;;10.00;99.90;;;;;;5080475;28;20455;-47
2024/02/20 00:30:44;;;;;;;5.67;2.60;;;10.00;99.90;;;;;;5076787;28;20493;-47
2024/02/20 00:33:12;;;;;;;3.40;2.30;;;10.00;99.90;;;;;;5074343;28;20494;-48
2024/02/20 00:35:43;;;;;;;4.70;2.73;;;10.00;99.90;;;;;;5069622;28;20542;-49
2024/02/20 00:38:12;;;;;;;4.87;2.50;;;10.00;99.90;;;;;;5077821;28;20462;-48
2024/02/20 00:40:40;;;;;;;8.00;2.93;;;10.00;99.90;;;;;;5071487;28;20444;-47
2024/02/20 00:43:09;;;;;;;3.10;2.67;;;10.00;99.90;;;;;;5069898;28;20976;-47
2024/02/20 00:45:38;;;;;;;4.17;2.70;;;10.00;99.90;;;;;;5075673;28;20749;-47
2024/02/20 00:48:10;;;;;;;3.60;2.53;;;10.00;99.90;;;;;;5081757;28;20465;-48
2024/02/20 00:50:40;;;;;;;3.20;2.10;;;10.00;99.90;;;;;;5075471;28;20551;-46
2024/02/20 00:53:13;;;;;;;2.73;1.80;;;10.00;99.90;;;;;;5073682;28;20989;-47
2024/02/20 00:55:42;;;;;;;3.60;2.27;;;10.00;99.90;;;;;;5072352;28;20461;-49
2024/02/20 00:58:12;;;;;;;6.13;2.80;;;10.00;99.90;;;;;;5079552;28;20469;-46
2024/02/20 01:00:41;;;;;;;4.10;2.97;;;10.00;99.90;;;;;;5078865;28;20500;-47
2024/02/20 01:03:13;;;;;;;3.47;2.10;;;10.00;99.90;;;;;;5073209;28;20464;-46
2024/02/20 01:05:42;;;;;;;5.87;2.50;;;10.00;99.90;;;;;;5079357;28;20426;-50
2024/02/20 01:08:10;;;;;;;3.70;2.03;;;10.00;99.90;;;;;;5074877;28;20455;-47
2024/02/20 01:10:42;;;;;;;3.73;2.20;;;10.00;99.90;;;;;;5077789;28;20477;-47
2024/02/20 01:13:12;;;;;;;4.60;2.23;;;10.00;99.90;;;;;;5073359;28;20461;-46
2024/02/20 01:15:43;;;;;;;3.20;2.23;;;10.00;99.90;;;;;;5073763;28;20485;-49
2024/02/20 01:18:14;;;;;;;4.37;2.50;;;10.00;99.90;;;;;;5072780;28;20512;-46
2024/02/20 01:20:44;;;;;;;3.60;2.20;;;10.00;99.90;;;;;;5075471;28;20977;-47
2024/02/20 01:23:13;;;;;;;4.33;2.57;;;10.00;99.90;;;;;;5073799;28;20460;-47
2024/02/20 01:25:44;;;;;;;3.70;2.50;;;10.00;99.90;;;;;;5077159;28;20439;-49
2024/02/20 01:28:12;;;;;;;5.60;2.60;;;10.00;99.90;;;;;;5078651;28;20459;-46
2024/02/20 01:30:43;;;;;;;3.40;1.80;;;10.00;99.90;;;;;;5074201;28;20447;-47
2024/02/20 01:33:13;;;;;;;3.77;2.33;;;10.00;99.90;;;;;;5075766;28;20513;-46
2024/02/20 01:35:42;;;;;;;3.50;2.00;;;10.00;99.90;;;;;;5075455;28;20909;-51
2024/02/20 01:38:12;;;;;;;5.83;2.20;;;10.00;99.90;;;;;;5072210;28;20492;-47
2024/02/20 01:40:41;;;;;;;3.47;2.30;;;10.00;99.90;;;;;;5077830;28;20491;-47
2024/02/20 01:43:14;;;;;;;2.73;2.10;;;10.00;99.90;;;;;;5071541;28;20462;-47
2024/02/20 01:45:42;;;;;;;4.13;2.47;;;10.00;99.90;;;;;;5070963;28;20557;-50
2024/02/20 01:48:15;;;;;;;3.77;2.10;;;10.00;99.90;;;;;;5081151;28;20866;-47
2024/02/20 01:50:44;;;;;;;3.80;2.20;;;10.00;99.90;;;;;;5076318;28;20456;-48
2024/02/20 01:53:12;;;;;;;7.40;2.80;;;10.00;99.90;;;;;;5073333;28;20480;-47
2024/02/20 01:55:42;;;;;;;5.90;2.70;;;10.00;99.90;;;;;;5079761;28;20932;-47
2024/02/20 01:58:11;;;;;;;6.80;2.30;;;10.00;99.90;;;;;;5070605;28;20465;-46
2024/02/20 02:00:42;;;;;;;4.30;2.50;;;10.00;99.90;;;;;;5059871;28;20444;-50
2024/02/20 02:03:13;;;;;;;4.87;2.60;;;10.00;99.90;;;;;;5077970;28;20824;-46
2024/02/20 02:05:42;;;;;;;8.00;2.57;;;9.90;99.90;;;;;;5076149;28;20438;-50
2024/02/20 02:08:14;;;;;;;4.30;2.20;;;9.90;99.90;;;;;;5071481;28;20496;-46
2024/02/20 02:10:44;;;;;;;4.33;2.10;;;10.00;99.90;;;;;;5081009;28;20441;-47
2024/02/20 02:13:16;;;;;;;5.93;2.80;;;9.90;99.90;;;;;;5082138;28;21046;-47
2024/02/20 02:15:45;;;;;;;4.20;2.33;;;9.90;99.90;;;;;;5074132;28;20815;-47
2024/02/20 02:18:14;;;;;;;4.40;2.33;;;9.90;99.90;;;;;;5080894;28;20516;-47
2024/02/20 02:20:43;;;;;;;4.70;3.23;;;9.90;99.90;;;;;;5078055;28;20514;-46
2024/02/20 02:23:12;;;;;;;4.20;2.37;;;9.90;99.90;;;;;;5074005;28;20873;-48
2024/02/20 02:25:40;;;;;;;6.03;2.17;;;9.90;99.90;;;;;;5074322;28;20536;-47
2024/02/20 02:28:11;;;;;;;5.53;2.20;;;9.90;99.90;;;;;;5081485;28;20472;-46
2024/02/20 02:30:42;;;;;;;3.50;3.07;;;9.90;99.90;;;;;;5081915;28;20969;-47
2024/02/20 02:33:11;;;;;;;3.30;2.53;;;9.90;99.90;;;;;;5076635;28;20471;-46
2024/02/20 02:35:43;;;;;;;5.33;2.70;;;9.90;99.90;;;;;;5082381;28;20961;-50
2024/02/20 02:38:12;;;;;;;2.77;2.33;;;9.90;99.90;;;;;;5073306;28;22074;-48
2024/02/20 02:40:42;;;;;;;4.10;2.27;;;9.90;99.90;;;;;;5077880;28;20431;-46
2024/02/20 02:43:12;;;;;;;3.00;2.17;;;9.90;99.90;;;;;;5077482;28;20843;-47
2024/02/20 02:45:41;;;;;;;6.40;3.17;;;9.90;99.90;;;;;;5080447;28;20434;-46
2024/02/20 02:48:09;;;;;;;5.30;2.60;;;9.90;99.90;;;;;;5078266;28;20469;-48
2024/02/20 02:50:39;;;;;;;7.37;2.57;;;9.90;99.90;;;;;;5078523;28;20512;-46
2024/02/20 02:53:07;;;;;;;2.83;1.70;;;9.90;99.90;;;;;;5073854;28;20459;-46
2024/02/20 02:55:36;;;;;;;5.53;2.13;;;9.90;99.90;;;;;;5078506;28;20451;-46
2024/02/20 02:58:06;;;;;;;3.90;2.53;;;9.90;99.90;;;;;;5084931;28;20549;-46
2024/02/20 03:00:37;;;;;;;5.30;2.20;;;9.90;99.90;;;;;;5083901;28;20451;-47
2024/02/20 03:03:07;;;;;;;3.90;2.00;;;9.90;99.90;;;;;;5063757;28;20548;-46
2024/02/20 03:05:37;;;;;;;4.73;2.53;;;9.90;99.90;;;;;;5079784;28;20455;-47
2024/02/20 03:08:10;;;;;;;3.50;2.77;;;9.90;99.90;;;;;;5073854;28;20460;-46
2024/02/20 03:10:42;;;;;;;4.17;2.77;;;9.90;99.90;;;;;;5078243;28;20512;-47
2024/02/20 03:13:14;;;;;;;2.60;1.63;;;9.90;99.90;;;;;;5082415;28;20461;-46
2024/02/20 03:15:44;;;;;;;4.47;2.47;;;9.90;99.90;;;;;;5059198;28;20462;-48
2024/02/20 03:18:12;;;;;;;3.90;2.17;;;9.90;99.90;;;;;;5082653;28;20457;-47
2024/02/20 03:20:42;;;;;;;5.50;2.37;;;9.90;99.90;;;;;;5075507;28;20781;-48
2024/02/20 03:23:10;;;;;;;3.67;2.30;;;9.90;99.90;;;;;;5055492;28;20462;-46
2024/02/20 03:25:39;;;;;;;6.23;2.57;;;9.90;99.90;;;;;;5082709;28;20446;-46
2024/02/20 03:28:11;;;;;;;7.13;2.70;;;9.90;99.90;;;;;;5073743;28;20462;-47
2024/02/20 03:30:44;;;;;;;3.23;2.03;;;9.90;99.90;;;;;;5083644;28;20443;-46
2024/02/20 03:33:13;;;;;;;3.83;2.40;;;9.90;99.90;;;;;;5076707;28;20477;-46
2024/02/20 03:35:47;;;;;;;3.80;2.40;;;9.90;99.90;;;;;;5076360;28;20469;-46
2024/02/20 03:38:15;;;;;;;2.90;2.07;;;9.90;99.90;;;;;;5072687;28;20459;-48
2024/02/20 03:40:44;;;;;;;4.73;2.13;;;9.90;99.90;;;;;;5074277;28;20438;-46
2024/02/20 03:43:12;;;;;;;3.77;2.77;;;9.90;99.90;;;;;;5075915;28;20458;-46
2024/02/20 03:45:46;;;;;;;7.50;3.17;;;9.90;99.90;;;;;;5076768;28;20449;-47
2024/02/20 03:48:17;;;;;;;4.23;2.30;;;9.90;99.90;;;;;;5078786;28;20463;-47
2024/02/20 03:50:46;;;;;;;3.70;2.10;;;9.90;99.90;;;;;;5077290;28;20440;-46
2024/02/20 03:53:16;;;;;;;3.90;2.80;;;9.80;99.90;;;;;;5073773;28;20464;-47
2024/02/20 03:55:46;;;;;;;4.60;2.80;;;9.80;99.90;;;;;;5072242;28;20447;-47
2024/02/20 03:58:15;;;;;;;3.73;2.23;;;9.80;99.90;;;;;;5073356;28;20489;-47
2024/02/20 04:00:43;;;;;;;3.63;2.03;;;9.80;99.90;;;;;;5083162;28;20441;-46
2024/02/20 04:03:12;;;;;;;4.23;2.87;;;9.80;99.90;;;;;;5075830;28;20507;-47
2024/02/20 04:05:44;;;;;;;4.63;2.60;;;9.80;99.90;;;;;;5081658;28;20425;-47
2024/02/20 04:08:12;;;;;;;4.30;2.13;;;9.80;99.90;;;;;;5079100;28;20975;-46
2024/02/20 04:10:42;;;;;;;5.33;2.27;;;9.80;99.90;;;;;;5080422;28;20445;-46
2024/02/20 04:13:11;;;;;;;5.00;2.83;;;9.80;99.90;;;;;;5071728;28;20463;-47
2024/02/20 04:15:41;;;;;;;6.87;3.03;;;9.80;99.90;;;;;;5082986;28;20491;-47
2024/02/20 04:18:11;;;;;;;4.57;2.30;;;9.80;99.90;;;;;;5082824;28;20907;-47
2024/02/20 04:20:40;;;;;;;4.17;2.27;;;9.80;99.90;;;;;;5076684;28;20432;-47
2024/02/20 04:23:10;;;;;;;4.97;2.23;;;9.80;99.90;;;;;;5077698;28;20458;-46
2024/02/20 04:25:43;;;;;;;3.80;2.30;;;9.80;99.90;;;;;;5075716;28;20446;-48
2024/02/20 04:28:14;;;;;;;5.70;2.50;;;9.80;99.90;;;;;;5082162;28;20453;-48
2024/02/20 04:30:44;;;;;;;4.63;2.97;;;9.80;99.90;;;;;;5075760;28;20794;-46
2024/02/20 04:33:13;;;;;;;3.23;2.60;;;9.80;99.90;;;;;;5083585;28;20515;-46
2024/02/20 04:35:42;;;;;;;4.27;2.60;;;9.80;99.90;;;;;;5058365;28;20437;-48
2024/02/20 04:38:15;;;;;;;5.70;2.40;;;9.80;99.90;;;;;;5071189;28;20845;-46
2024/02/20 04:40:46;;;;;;;2.93;1.90;;;9.80;99.90;;;;;;5076635;28;20441;-46
2024/02/20 04:43:15;;;;;;;3.80;2.17;;;9.80;99.90;;;;;;5075453;28;20476;-47
2024/02/20 04:45:43;;;;;;;4.20;2.43;;;9.80;99.90;;;;;;5078890;28;20437;-47
2024/02/20 04:48:14;;;;;;;4.03;2.27;;;9.80;99.90;;;;;;5074461;28;20463;-46
2024/02/20 04:50:42;;;;;;;4.23;2.07;;;9.80;99.90;;;;;;5072522;28;20904;-46
2024/02/20 04:53:10;;;;;;;4.53;2.00;;;9.80;99.90;;;;;;5074332;28;20475;-48
2024/02/20 04:55:40;;;;;;;2.90;1.93;;;9.80;99.90;;;;;;5079799;28;20426;-47
2024/02/20 04:58:11;;;;;;;4.10;2.60;;;9.80;99.90;;;;;;5074617;28;20530;-47
2024/02/20 05:00:40;;;;;;;3.20;2.40;;;9.80;99.90;;;;;;5082336;28;20473;-46
2024/02/20 05:03:09;;;;;;;4.07;2.10;;;9.80;99.90;;;;;;5080080;28;21003;-46
2024/02/20 05:05:44;;;;;;;3.53;2.40;;;9.80;99.90;;;;;;5076870;28;20445;-47
2024/02/20 05:08:12;;;;;;;4.67;2.20;;;9.80;99.90;;;;;;5077911;28;20827;-46
2024/02/20 05:10:43;;;;;;;4.43;2.73;;;9.80;99.90;;;;;;5075686;28;20437;-46
2024/02/20 05:13:16;;;;;;;3.03;2.47;;;9.70;99.90;;;;;;5077131;28;20471;-48
2024/02/20 05:15:45;;;;;;;4.10;2.13;;;9.80;99.90;;;;;;5075254;28;21006;-46
2024/02/20 05:18:16;;;;;;;3.43;1.50;;;9.80;99.90;;;;;;5075194;28;20466;-46
2024/02/20 05:20:46;;;;;;;7.60;2.33;;;9.80;99.90;;;;;;5053830;28;20438;-46
2024/02/20 05:23:16;;;;;;;3.60;2.10;;;9.80;99.90;;;;;;5078504;28;20525;-46
2024/02/20 05:25:47;;;;;;;3.80;2.37;;;9.80;99.90;;;;;;5076812;28;20948;-46
2024/02/20 05:28:18;;;;;;;3.60;2.17;;;9.80;99.90;;;;;;5071290;28;20459;-47
2024/02/20 05:30:46;;;;;;;2.60;2.13;;;9.80;99.90;;;;;;5072969;28;20905;-50
2024/02/20 05:33:16;;;;;;;4.87;2.20;;;9.80;99.90;;;;;;5078648;28;20480;-47
2024/02/20 05:35:46;;;;;;;3.07;1.90;;;9.80;99.90;;;;;;5073046;28;20527;-46
2024/02/20 05:38:16;;;;;;;3.93;2.43;;;9.70;99.90;;;;;;5068829;28;20462;-46
2024/02/20 05:40:48;;;;;;;3.70;2.43;;;9.70;99.90;;;;;;5072483;28;20449;-46
2024/02/20 05:43:16;;;;;;;5.23;2.33;;;9.70;99.90;;;;;;5069475;28;20451;-47
2024/02/20 05:45:46;;;;;;;6.20;2.50;;;9.70;99.90;;;;;;5070395;28;20481;-46
2024/02/20 05:48:14;;;;;;;3.17;2.10;;;9.70;99.90;;;;;;5079094;28;20523;-47
2024/02/20 05:50:44;;;;;;;3.63;2.10;;;9.70;99.90;;;;;;5075537;28;20976;-46
2024/02/20 05:53:12;;;;;;;4.30;2.50;;;9.70;99.90;;;;;;5074630;28;20475;-47
2024/02/20 05:55:42;;;;;;;7.30;3.73;;;9.70;99.90;;;;;;5071305;28;20434;-48
2024/02/20 05:58:13;;;;;;;5.40;3.20;;;9.70;99.90;;;;;;5079821;28;20979;-47
2024/02/20 06:00:42;;;;;;;4.00;2.50;;;9.70;99.90;;;;;;5072772;28;20430;-47
2024/02/20 06:03:12;;;;;;;3.50;2.77;;;9.70;99.90;;;;;;5074905;28;20458;-47
2024/02/20 06:05:40;;;;;;;4.23;2.13;;;9.70;99.90;;;;;;5070218;28;20804;-47
2024/02/20 06:08:08;;;;;;;5.50;2.73;;;9.70;99.90;;;;;;5069491;28;20462;-47
2024/02/20 06:10:36;;;;;;;4.97;2.80;;;9.70;99.90;;;;;;5071165;28;20429;-47
2024/02/20 06:13:06;;;;;;;4.50;2.27;;;9.70;99.90;;;;;;5073181;28;20846;-46
2024/02/20 06:15:41;;;;;;;5.10;2.63;;;9.70;99.90;;;;;;5074893;28;20434;-47
2024/02/20 06:18:12;;;;;;;5.43;3.00;;;9.70;99.90;;;;;;5084423;28;20975;-46
2024/02/20 06:20:45;;;;;;;3.73;2.93;;;9.70;99.90;;;;;;5074071;28;20420;-46
2024/02/20 06:23:15;;;;;;;7.87;3.23;;;9.70;99.90;;;;;;5079653;28;20487;-47
2024/02/20 06:25:45;;;;;;;6.03;2.60;;;9.70;99.90;;;;;;5082070;28;20912;-50
2024/02/20 06:28:16;;;;;;;4.03;2.40;;;9.70;99.90;;;;;;5072117;28;20838;-48
2024/02/20 06:30:48;;;;;;;5.17;3.50;;;9.70;99.90;;;;;;5072860;28;20427;-46
2024/02/20 06:33:20;;;;;;;4.93;3.50;;;9.70;99.90;;;;;;5055241;28;20463;-46
2024/02/20 06:35:51;;;;;;;5.93;3.00;;;9.70;99.90;;;;;;5080986;28;20480;-46
2024/02/20 06:38:22;;;;;;;5.90;2.80;;;9.70;99.90;;;;;;5051177;28;20466;-47
2024/02/20 06:40:53;;;;;;;5.90;3.93;;;9.70;99.90;;;;;;5069253;28;20453;-46
2024/02/20 06:43:26;;;;;;;5.50;2.80;;;9.70;99.90;;;;;;5075139;28;20475;-46
2024/02/20 06:45:59;;;;;;;5.17;3.07;;;9.70;99.90;;;;;;5076812;28;20472;-47
2024/02/20 06:48:27;;;;;;;4.80;2.50;;;9.70;99.90;;;;;;5078033;28;20459;-47
2024/02/20 06:50:58;;;;;;;7.60;3.13;;;9.70;99.90;;;;;;5081511;28;20430;-46
2024/02/20 06:53:28;;;;;;;6.27;2.80;;;9.60;99.90;;;;;;5073290;28;20458;-47
2024/02/20 06:55:57;;;;;;;7.87;3.63;;;9.60;99.90;;;;;;5077080;28;20488;-47
2024/02/20 06:58:28;;;;;;;6.00;3.23;;;9.60;99.90;;;;;;5084127;28;20462;-47
2024/02/20 07:01:01;;;;;;;4.50;2.80;;;9.60;99.90;;;;;;5078480;28;20429;-46
2024/02/20 07:03:31;;;;;;;4.80;3.10;;;9.60;99.90;;;;;;5078472;28;20462;-47
2024/02/20 07:06:01;;;;;;;3.37;2.50;;;9.60;99.90;;;;;;5084657;28;20429;-47
2024/02/20 07:08:31;;;;;;;3.73;2.10;;;9.60;99.90;;;;;;5079066;28;20544;-46
2024/02/20 07:11:04;;;;;;;4.50;2.67;;;9.60;99.90;;;;;;5074576;28;20420;-46
2024/02/20 07:13:35;;;;;;;2.60;1.80;;;9.60;99.90;;;;;;5076732;28;20541;-47
2024/02/20 07:16:07;;;;;;;5.67;2.40;;;9.60;99.90;;;;;;5077086;28;20815;-48
2024/02/20 07:18:37;;;;;;;5.90;3.30;;;9.60;99.90;;;;;;5078140;28;20973;-47
2024/02/20 07:21:05;;;;;;;2.53;2.00;;;9.60;99.90;;;;;;5072251;28;20429;-46
2024/02/20 07:23:35;;;;;;;4.60;2.70;;;9.60;99.90;;;;;;5075765;28;21080;-47
2024/02/20 07:26:07;;;;;;;5.37;2.27;;;9.60;99.90;;;;;;5071881;28;20969;-47
2024/02/20 07:28:37;;;;;;;4.60;2.70;;;9.60;99.90;;;;;;5075144;28;20450;-46
2024/02/20 07:31:08;;;;;;;3.83;2.80;;;9.60;99.90;;;;;;5076373;28;20940;-46
2024/02/20 07:33:39;;;;;;;6.60;3.27;;;9.60;99.90;;;;;;5072994;28;20482;-45
2024/02/20 07:36:10;;;;;;;6.37;2.83;;;9.60;99.90;;;;;;5073672;28;20429;-46
2024/02/20 07:38:40;;;;;;;4.67;2.50;;;9.60;99.90;;;;;;5073251;28;20545;-46
2024/02/20 07:41:09;;;;;;;4.07;2.53;;;9.60;99.90;;;;;;5072954;28;20496;-47
2024/02/20 07:43:40;;;;;;;4.97;2.50;;;9.60;99.90;;;;;;5076087;28;20481;-46
2024/02/20 07:46:16;;;;;;;5.73;2.50;;;9.60;99.90;;;;;;5075458;28;20483;-48
2024/02/20 07:48:47;;;;;;;5.30;3.30;;;9.60;99.90;;;;;;5077294;28;20512;-46
2024/02/20 07:51:17;;;;;;;3.47;2.57;;;9.60;99.90;;;;;;5073176;28;20437;-46
2024/02/20 07:53:50;;;;;;;5.57;3.80;;;9.60;99.90;;;;;;5078400;28;20515;-47
2024/02/20 07:56:24;;;;;;;4.80;2.77;;;9.60;99.90;;;;;;5055778;28;20449;-47
2024/02/20 07:58:54;;;;;;;4.00;2.57;;;9.60;99.90;;;;;;5072295;28;20458;-46
2024/02/20 08:01:26;;;;;;;6.57;4.17;;;9.60;99.90;;;;;;5078746;28;20963;-46
2024/02/20 08:03:57;;;;;;;4.60;2.80;;;9.60;99.90;;;;;;5077086;28;21066;-48
2024/02/20 08:06:27;;;;;;;7.20;4.07;;;9.60;99.90;;;;;;5071908;28;20435;-47
2024/02/20 08:08:56;;;;;;;3.67;2.10;;;9.60;99.90;;;;;;5072201;28;20563;-47
2024/02/20 08:11:25;;;;;;;3.17;2.20;;;9.60;99.90;;;;;;5076626;28;20434;-47
2024/02/20 08:13:58;;;;;;;5.80;3.37;;;9.60;99.90;;;;;;5083097;28;20472;-48
2024/02/20 08:16:30;;;;;;;4.00;2.57;;;9.60;99.90;;;;;;5080782;28;20466;-47
2024/02/20 08:18:58;;;;;;;3.07;2.60;;;9.50;99.90;;;;;;5081513;28;20486;-47
2024/02/20 08:21:28;;;;;;;3.07;2.33;;;9.60;99.90;;;;;;5079589;28;20808;-46
2024/02/20 08:23:58;;;;;;;8.10;3.00;;;9.60;99.90;;;;;;5074462;28;20454;-47
2024/02/20 08:26:27;;;;;;;3.33;2.30;;;9.60;99.90;;;;;;5075787;28;20439;-47
2024/02/20 08:28:56;;;;;;;6.03;2.20;;;9.50;99.90;;;;;;5071934;28;20620;-48
2024/02/20 08:31:24;;;;;;;6.67;3.40;;;9.50;99.90;;;;;;5085512;28;20467;-47
2024/02/20 08:33:56;;;;;;;5.37;2.17;;;9.50;99.90;;;;;;5077468;28;20465;-48
2024/02/20 08:36:25;;;;;;;4.97;2.57;;;9.50;99.90;;;;;;5077777;28;20485;-47
2024/02/20 08:38:54;;;;;;;4.97;3.33;;;9.50;99.90;;;;;;5069288;28;20541;-46
2024/02/20 08:41:24;;;;;;;3.73;3.10;;;9.50;99.90;;;;;;5078907;28;20439;-46
2024/02/20 08:43:55;;;;;;;5.53;2.47;;;9.50;99.90;;;;;;5073205;28;21000;-46
2024/02/20 08:46:26;;;;;;;5.23;2.83;;;9.50;99.90;;;;;;5071413;28;20430;-46
2024/02/20 08:48:57;;;;;;;10.13;3.23;;;9.50;99.90;;;;;;5080965;28;20853;-47
2024/02/20 08:51:26;;;;;;;3.70;1.73;;;9.50;99.90;;;;;;5079396;28;20434;-49
2024/02/20 08:53:56;;;;;;;5.17;2.40;;;9.50;99.90;;;;;;5073665;28;21018;-47
2024/02/20 08:56:25;;;;;;;4.60;2.40;;;9.50;99.90;;;;;;5072117;28;20557;-48
2024/02/20 08:58:54;;;;;;;3.30;2.07;;;9.50;99.90;;;;;;5076973;28;20484;-47
2024/02/20 09:01:25;;;;;;;3.37;2.43;;;9.50;99.90;;;;;;5072178;28;20426;-47
2024/02/20 09:03:59;;;;;;;3.00;1.80;;;9.50;99.90;;;;;;5078358;28;20512;-47
2024/02/20 09:06:31;;;;;;;3.73;1.80;;;9.50;99.90;;;;;;5074125;28;20434;-47
2024/02/20 09:09:01;;;;;;;8.30;2.50;;;9.50;99.90;;;;;;5070603;28;20466;-47
2024/02/20 09:11:29;;;;;;;3.27;2.13;;;9.50;99.90;;;;;;5071962;28;20828;-47
2024/02/20 09:13:57;;;;;;;3.40;1.93;;;9.50;99.90;;;;;;5070437;28;20498;-47
2024/02/20 09:16:27;;;;;;;5.60;2.07;;;9.50;99.90;;;;;;5081505;28;20462;-47
2024/02/20 09:19:00;;;;;;;3.03;2.10;;;9.50;99.90;;;;;;5077230;28;20472;-47
2024/02/20 09:21:32;;;;;;;4.73;2.30;;;9.50;99.90;;;;;;5076994;28;20438;-47
2024/02/20 09:24:02;;;;;;;3.00;1.90;;;9.50;99.90;;;;;;5072795;28;20472;-48
2024/02/20 09:26:32;;;;;;;4.10;1.80;;;9.50;99.90;;;;;;5075860;28;20488;-47
2024/02/20 09:29:02;;;;;;;3.50;2.03;;;9.50;99.90;;;;;;5081742;28;20462;-48
2024/02/20 09:31:30;;;;;;;2.83;1.57;;;9.50;99.90;;;;;;5073629;28;20445;-48
2024/02/20 09:34:00;;;;;;;4.90;2.17;;;9.50;99.90;;;;;;5078536;28;20475;-50
2024/02/20 09:36:29;;;;;;;4.13;1.90;;;9.50;99.90;;;;;;5073941;28;20514;-47
2024/02/20 09:38:57;;;;;;;3.50;1.70;;;9.50;99.90;;;;;;5075602;28;20468;-47
2024/02/20 09:41:28;;;;;;;3.60;2.27;;;9.50;99.90;;;;;;5076979;28;20967;-48
2024/02/20 09:43:57;;;;;;;4.40;2.50;;;9.50;99.90;;;;;;5082256;28;20458;-46
2024/02/20 09:46:27;;;;;;;2.87;1.90;;;9.50;99.90;;;;;;5075883;28;20488;-47
2024/02/20 09:49:00;;;;;;;2.13;1.60;;;9.50;99.90;;;;;;5076739;28;20466;-46
2024/02/20 09:51:32;;;;;;;2.60;1.67;;;9.50;99.90;;;;;;5076835;28;20950;-47
2024/02/20 09:54:05;;;;;;;3.40;1.83;;;9.50;99.90;;;;;;5075370;28;20470;-48
2024/02/20 09:56:36;;;;;;;3.97;2.07;;;9.50;99.90;;;;;;5071524;28;20843;-46
2024/02/20 09:59:07;;;;;;;5.27;2.57;;;9.50;99.90;;;;;;5073525;28;20463;-47
2024/02/20 10:01:37;;;;;;;2.73;2.00;;;9.50;99.90;;;;;;5076705;28;20435;-47
2024/02/20 10:04:10;;;;;;;2.47;1.80;;;9.50;99.90;;;;;;5076602;28;20470;-46
2024/02/20 10:06:39;;;;;;;3.47;2.23;;;9.50;99.90;;;;;;5071093;28;21013;-47
2024/02/20 10:09:09;;;;;;;3.63;1.80;;;9.40;99.90;;;;;;5070347;28;20868;-47
2024/02/20 10:11:38;;;;;;;3.10;1.80;;;9.50;99.90;;;;;;5077653;28;20448;-47
2024/02/20 10:14:08;;;;;;;2.83;2.03;;;9.50;99.90;;;;;;5070468;28;20459;-47
2024/02/20 10:16:37;;;;;;;3.17;1.77;;;9.40;99.90;;;;;;5075713;28;20473;-47
2024/02/20 10:19:08;;;;;;;2.70;1.90;;;9.40;99.90;;;;;;5074464;28;20465;-47
2024/02/20 10:21:40;;;;;;;3.00;1.83;;;9.40;99.90;;;;;;5074714;28;20517;-46
2024/02/20 10:24:09;;;;;;;2.00;1.50;;;9.40;99.90;;;;;;5074351;28;21065;-46
2024/02/20 10:26:49;;;;;;;3.17;1.60;;;9.40;99.90;;;;;;5076174;28;20445;-46
2024/02/20 10:29:20;;;;;;;3.13;1.77;;;9.40;99.90;;;;;;5072158;28;20466;-46
2024/02/20 10:31:49;;;;;;;4.77;2.03;;;9.40;99.90;;;;;;5076831;28;20960;-46
2024/02/20 10:34:22;;;;;;;4.33;1.57;;;9.40;99.90;;;;;;5074598;28;20450;-46
2024/02/20 10:36:52;;;;;;;2.63;1.80;;;9.40;99.90;;;;;;5074417;28;20466;-46
2024/02/20 10:39:24;;;;;;;3.13;1.57;;;9.40;99.90;;;;;;5074054;28;20470;-47
2024/02/20 10:41:55;;;;;;;2.77;1.93;;;9.40;99.90;;;;;;5078080;28;20492;-47
2024/02/20 10:44:25;;;;;;;3.00;1.87;;;9.40;99.90;;;;;;5073166;28;20966;-46
2024/02/20 10:46:58;;;;;;;3.10;1.67;;;9.40;99.90;;;;;;5066159;28;20441;-49
2024/02/20 10:49:30;;;;;;;4.10;2.10;;;9.40;99.90;;;;;;5081719;28;20454;-48
2024/02/20 10:52:03;;;;;;;3.90;2.00;;;9.40;99.90;;;;;;5078207;28;20441;-47
2024/02/20 10:54:33;;;;;;;3.13;2.10;;;9.40;99.90;;;;;;5076999;28;20462;-46
2024/02/20 10:57:15;;;;;;;3.70;1.70;;;9.40;99.90;;;;;;5083702;28;21004;-46
2024/02/20 10:59:51;;;;;;;3.73;2.33;;;9.40;99.90;;;;;;5075940;28;20557;-46
2024/02/20 11:02:21;;;;;;;3.53;1.60;;;9.40;99.90;;;;;;5074139;28;20816;-47
2024/02/20 11:04:55;;;;;;;2.77;1.60;;;9.40;99.90;;;;;;5073236;28;20512;-46
2024/02/20 11:07:27;;;;;;;4.00;2.60;;;9.40;99.90;;;;;;5073338;28;20858;-46
2024/02/20 11:10:11;;;;;;;3.27;1.67;;;9.40;99.90;;;;;;5076111;28;20880;-47
2024/02/20 11:12:42;;;;;;;4.37;1.83;;;9.40;99.90;;;;;;5075743;28;20430;-48
2024/02/20 11:15:14;;;;;;;2.73;1.70;;;9.40;99.90;;;;;;5072391;28;21008;-49
2024/02/20 11:17:43;;;;;;;4.30;2.00;;;9.40;99.90;;;;;;5083450;28;20978;-49
2024/02/20 11:20:18;;;;;;;4.10;2.00;;;9.40;99.90;;;;;;5077518;28;20437;-47
2024/02/20 11:22:49;;;;;;;3.30;2.03;;;9.40;99.90;;;;;;5073536;28;20453;-47
2024/02/20 11:25:28;;;;;;;3.00;2.17;;;9.40;99.90;;;;;;5080219;28;20825;-46
2024/02/20 11:27:57;;;;;;;4.17;1.70;;;9.40;99.90;;;;;;5087159;28;20462;-46
2024/02/20 11:30:29;;;;;;;4.63;1.80;;;9.40;99.90;;;;;;5077949;28;20484;-46
2024/02/20 11:33:00;;;;;;;2.23;1.37;;;9.40;99.90;;;;;;5079687;28;20445;-46
2024/02/20 11:35:33;;;;;;;3.80;2.00;;;9.40;99.90;;;;;;5075864;28;20817;-46
2024/02/20 11:38:09;;;;;;;3.20;1.50;;;9.40;99.90;;;;;;5072881;28;20495;-46
2024/02/20 11:40:40;;;;;;;5.30;1.80;;;9.40;99.90;;;;;;5073575;28;20531;-47
2024/02/20 11:43:10;;;;;;;2.83;2.30;;;9.40;99.90;;;;;;5071208;28;20546;-47
2024/02/20 11:45:42;;;;;;;3.73;1.90;;;9.40;99.90;;;;;;5074449;28;20484;-48
2024/02/20 11:48:13;;;;;;;3.53;1.97;;;9.40;99.90;;;;;;5078466;28;20523;-48
2024/02/20 11:50:45;;;;;;;3.50;1.70;;;9.40;99.90;;;;;;5074006;28;20927;-46
2024/02/20 11:53:15;;;;;;;3.57;1.93;;;9.40;99.90;;;;;;5075840;28;20463;-46
2024/02/20 11:55:45;;;;;;;4.00;1.73;;;9.40;99.90;;;;;;5073624;28;20513;-47
2024/02/20 11:58:16;;;;;;;3.00;1.93;;;9.40;99.90;;;;;;5071894;28;20544;-47
2024/02/20 12:00:54;;;;;;;4.77;2.20;;;9.40;99.90;;;;;;5075651;28;20430;-48
2024/02/20 12:03:30;;;;;;;4.00;1.97;;;9.40;99.90;;;;;;5078498;28;20489;-46
2024/02/20 12:06:08;;;;;;;3.70;1.70;;;9.40;99.90;;;;;;5075070;28;20430;-47
2024/02/20 12:08:42;;;;;;;5.10;2.33;;;9.40;99.90;;;;;;5072975;28;20458;-46
2024/02/20 12:11:19;;;;;;;3.37;1.67;;;9.40;99.90;;;;;;5074096;28;20533;-47
2024/02/20 12:13:50;;;;;;;5.00;2.73;;;9.40;99.90;;;;;;5074872;28;20469;-47
2024/02/20 12:16:24;;;;;;;2.47;1.77;;;9.40;99.90;;;;;;5075874;28;20957;-47
2024/02/20 12:18:56;;;;;;;2.27;1.40;;;9.40;99.90;;;;;;5077893;28;20512;-46
2024/02/20 12:21:45;;;;;;;3.13;1.80;;;9.40;99.90;;;;;;5075415;28;20542;-48
2024/02/20 12:24:24;;;;;;;3.30;1.67;;;9.40;99.90;;;;;;5078144;28;20466;-47
2024/02/20 12:26:58;;;;;;;3.97;1.83;;;9.40;99.90;;;;;;5072144;28;20434;-46
2024/02/20 12:29:27;;;;;;;3.30;1.80;;;9.40;99.90;;;;;;5071862;28;20546;-47
2024/02/20 12:31:56;;;;;;;3.53;1.50;;;9.40;99.90;;;;;;5078170;28;20826;-48
2024/02/20 12:34:27;;;;;;;5.43;2.10;;;9.40;99.90;;;;;;5075478;28;20483;-48
2024/02/20 12:37:13;;;;;;;3.80;2.43;;;9.40;99.90;;;;;;5075530;28;20480;-46
2024/02/20 12:39:42;;;;;;;3.67;1.67;;;9.40;99.90;;;;;;5072227;28;20462;-47
2024/02/20 12:42:11;;;;;;;2.90;1.70;;;9.40;99.90;;;;;;5073762;28;20457;-46
2024/02/20 12:44:41;;;;;;;5.27;1.67;;;9.40;99.90;;;;;;5072925;28;20484;-47
2024/02/20 12:47:11;;;;;;;3.07;1.60;;;9.40;99.90;;;;;;5083389;28;20513;-50
2024/02/20 12:49:42;;;;;;;2.57;1.73;;;9.40;99.90;;;;;;5074939;28;20834;-48
2024/02/20 12:52:14;;;;;;;2.30;1.80;;;9.40;99.90;;;;;;5074109;28;20938;-45
2024/02/20 12:54:42;;;;;;;2.60;1.80;;;9.40;99.90;;;;;;5071442;28;20848;-48
2024/02/20 12:57:12;;;;;;;3.17;1.70;;;9.40;99.90;;;;;;5079022;28;20512;-47
2024/02/20 12:59:41;;;;;;;5.23;2.43;;;9.40;99.90;;;;;;5071591;28;20469;-47
2024/02/20 13:02:12;;;;;;;6.93;3.33;;;9.50;99.90;;;;;;5072504;28;20445;-48
2024/02/20 13:04:40;;;;;;;4.23;3.10;;;9.50;99.90;;;;;;5076656;28;20524;-46
2024/02/20 13:07:10;;;;;;;9.60;3.50;;;9.50;99.90;;;;;;5071375;28;20432;-46
2024/02/20 13:09:41;;;;;;;7.00;3.40;;;9.50;99.90;;;;;;5068567;28;20462;-49
2024/02/20 13:12:15;;;;;;;5.67;3.70;;;9.50;99.90;;;;;;5073638;28;22551;-46